Time;durP1;ratioP1;P1;durP2;ratioP2;P2;SDS_P1;SDS_P2;PMS_P1;PMS_P2;Temp;Humidity;BMP_temperature;BMP_pressure;BME280_temperature;BME280_humidity;BME280_pressure;Samples;Min_cycle;Max_cycle;Signal;HPM_P1;HPM_P2
2021/11/24 00:01:25;;;;;;;26.33;13.60;;;9.20;93.60;;;;;;5054897;28;20043;-75
2021/11/24 00:03:51;;;;;;;25.55;12.93;;;9.10;93.70;;;;;;5051866;28;20024;-75
2021/11/24 00:06:17;;;;;;;29.30;12.80;;;9.10;93.70;;;;;;5055231;28;20025;-75
2021/11/24 00:08:43;;;;;;;28.50;14.15;;;9.10;93.80;;;;;;5055538;28;20028;-74
2021/11/24 00:11:09;;;;;;;28.60;13.98;;;9.10;93.90;;;;;;5050776;28;20831;-75
2021/11/24 00:13:35;;;;;;;27.15;14.55;;;9.10;93.90;;;;;;5042492;28;20033;-74
2021/11/24 00:16:01;;;;;;;27.20;14.23;;;9.10;93.90;;;;;;5040333;28;20107;-74
2021/11/24 00:18:26;;;;;;;27.65;13.95;;;9.20;93.90;;;;;;5036151;28;20086;-75
2021/11/24 00:20:52;;;;;;;27.98;14.20;;;9.20;93.80;;;;;;5043898;28;20104;-74
2021/11/24 00:23:18;;;;;;;30.83;14.48;;;9.20;93.80;;;;;;5049321;28;20464;-74
2021/11/24 00:25:44;;;;;;;29.73;14.25;;;9.20;93.80;;;;;;5049193;28;20044;-75
2021/11/24 00:28:10;;;;;;;23.50;12.68;;;9.20;93.80;;;;;;5040514;28;20060;-74
2021/11/24 00:30:36;;;;;;;24.65;13.43;;;9.30;93.80;;;;;;5045133;28;20765;-74
2021/11/24 00:33:02;;;;;;;31.85;15.23;;;9.30;93.70;;;;;;5051204;28;20035;-74
2021/11/24 00:35:28;;;;;;;30.35;14.52;;;9.30;93.60;;;;;;5057042;28;20024;-74
2021/11/24 00:37:54;;;;;;;28.42;13.35;;;9.30;93.70;;;;;;5053406;28;20025;-74
2021/11/24 00:40:20;;;;;;;26.25;13.90;;;9.30;93.80;;;;;;5046359;28;20068;-74
2021/11/24 00:42:46;;;;;;;27.33;14.13;;;9.20;93.70;;;;;;5042137;28;20062;-74
2021/11/24 00:45:13;;;;;;;28.67;13.90;;;9.30;93.70;;;;;;5039071;28;20025;-74
2021/11/24 00:47:39;;;;;;;27.10;14.48;;;9.30;93.70;;;;;;5054743;28;20032;-74
2021/11/24 00:50:06;;;;;;;24.42;12.95;;;9.30;93.70;;;;;;5046915;28;20032;-74
2021/11/24 00:52:32;;;;;;;26.45;13.70;;;9.30;93.70;;;;;;5043310;28;20029;-74
2021/11/24 00:54:58;;;;;;;28.60;14.00;;;9.30;93.60;;;;;;5055259;28;20664;-75
2021/11/24 00:57:25;;;;;;;27.15;13.27;;;9.30;93.70;;;;;;5052728;28;20095;-74
2021/11/24 00:59:51;;;;;;;23.35;12.55;;;9.30;93.60;;;;;;5048604;28;20032;-74
2021/11/24 01:02:17;;;;;;;28.63;13.43;;;9.30;93.60;;;;;;5048775;28;20028;-74
2021/11/24 01:04:42;;;;;;;21.45;11.73;;;9.30;93.50;;;;;;5042720;28;20752;-74
2021/11/24 01:07:08;;;;;;;22.60;11.85;;;9.20;93.70;;;;;;5049370;28;20076;-74
2021/11/24 01:09:34;;;;;;;21.25;11.95;;;9.20;93.80;;;;;;5046433;28;20037;-75
2021/11/24 01:12:01;;;;;;;22.30;11.80;;;9.20;93.70;;;;;;5041683;28;20241;-74
2021/11/24 01:14:27;;;;;;;19.33;10.77;;;9.10;93.60;;;;;;5043667;28;20591;-74
2021/11/24 01:16:53;;;;;;;21.77;10.15;;;9.10;93.60;;;;;;5048966;28;20109;-74
2021/11/24 01:19:19;;;;;;;24.58;10.95;;;9.10;93.60;;;;;;5046032;28;20119;-74
2021/11/24 01:21:45;;;;;;;18.63;10.02;;;9.10;93.60;;;;;;5058364;28;20131;-74
2021/11/24 01:24:11;;;;;;;21.60;10.77;;;9.10;93.50;;;;;;5052469;28;20036;-74
2021/11/24 01:26:37;;;;;;;23.63;11.40;;;9.10;93.60;;;;;;5049391;28;20044;-74
2021/11/24 01:29:04;;;;;;;21.23;10.80;;;9.10;93.50;;;;;;5042873;28;20660;-74
2021/11/24 01:31:30;;;;;;;21.10;10.30;;;9.10;93.60;;;;;;5041459;28;20043;-74
2021/11/24 01:33:56;;;;;;;28.90;11.38;;;9.10;93.50;;;;;;5045546;28;20183;-74
2021/11/24 01:36:22;;;;;;;22.83;11.07;;;9.10;93.40;;;;;;5044708;28;20493;-74
2021/11/24 01:38:47;;;;;;;19.50;10.27;;;9.10;93.60;;;;;;5056706;28;20448;-75
2021/11/24 01:41:15;;;;;;;23.38;10.50;;;9.10;93.60;;;;;;5054873;28;20071;-74
2021/11/24 01:43:41;;;;;;;19.65;10.98;;;9.10;93.60;;;;;;5048504;28;20040;-74
2021/11/24 01:46:07;;;;;;;18.77;10.50;;;9.10;93.60;;;;;;5043080;28;20025;-74
2021/11/24 01:48:32;;;;;;;23.05;11.23;;;9.10;93.70;;;;;;5040126;28;20036;-74
2021/11/24 01:50:58;;;;;;;26.48;11.55;;;9.00;93.90;;;;;;5043490;28;20056;-74
2021/11/24 01:53:28;;;;;;;20.88;9.70;;;9.00;94.00;;;;;;5048289;28;20028;-74
2021/11/24 01:55:55;;;;;;;21.50;10.25;;;8.90;94.10;;;;;;5053394;28;20044;-75
2021/11/24 01:58:25;;;;;;;20.92;10.25;;;9.00;94.10;;;;;;5056280;28;20032;-74
2021/11/24 02:00:51;;;;;;;18.42;9.68;;;8.90;94.10;;;;;;5052654;28;20028;-74
2021/11/24 02:03:17;;;;;;;19.85;10.23;;;8.90;94.00;;;;;;5047209;28;20474;-74
2021/11/24 02:05:43;;;;;;;18.45;11.20;;;8.90;94.20;;;;;;5043143;28;20085;-74
2021/11/24 02:08:09;;;;;;;19.98;10.48;;;8.90;94.10;;;;;;5048044;28;20767;-74
2021/11/24 02:10:35;;;;;;;17.40;9.15;;;8.90;94.10;;;;;;5044052;28;20036;-74
2021/11/24 02:13:01;;;;;;;22.20;10.15;;;8.90;94.20;;;;;;5049666;28;20098;-74
2021/11/24 02:15:28;;;;;;;22.58;11.82;;;8.90;94.10;;;;;;5055110;28;20377;-74
2021/11/24 02:17:53;;;;;;;22.80;10.77;;;8.90;94.20;;;;;;5041090;28;20036;-74
2021/11/24 02:20:35;;;;;;;21.55;10.70;;;8.90;94.10;;;;;;5044226;28;20032;-74
2021/11/24 02:23:02;;;;;;;22.00;10.85;;;8.90;94.30;;;;;;5042499;28;20035;-74
2021/11/24 02:25:28;;;;;;;22.38;10.63;;;8.90;94.30;;;;;;5039081;28;20033;-74
2021/11/24 02:27:54;;;;;;;18.20;9.77;;;8.80;94.40;;;;;;5042670;28;20040;-74
2021/11/24 02:30:20;;;;;;;19.17;9.98;;;8.80;94.30;;;;;;5044274;28;20025;-74
2021/11/24 02:32:46;;;;;;;21.75;10.75;;;8.80;94.30;;;;;;5051659;28;20685;-74
2021/11/24 02:35:12;;;;;;;18.48;10.00;;;8.80;94.40;;;;;;5044765;28;20033;-74
2021/11/24 02:37:38;;;;;;;24.13;10.60;;;8.80;94.50;;;;;;5040824;28;20633;-74
2021/11/24 02:40:04;;;;;;;18.52;9.88;;;8.80;94.40;;;;;;5046200;28;20036;-74
2021/11/24 02:42:30;;;;;;;22.13;10.05;;;8.80;94.50;;;;;;5043243;28;20037;-73
2021/11/24 02:44:56;;;;;;;21.00;11.23;;;8.80;94.40;;;;;;5051709;28;20035;-74
2021/11/24 02:47:22;;;;;;;18.77;9.60;;;8.80;94.30;;;;;;5044478;28;20064;-74
2021/11/24 02:49:51;;;;;;;18.27;10.00;;;8.80;94.20;;;;;;5050214;28;20025;-74
2021/11/24 02:52:19;;;;;;;21.90;10.68;;;8.80;94.60;;;;;;5051311;28;20103;-74
2021/11/24 02:54:53;;;;;;;19.10;9.77;;;8.70;94.30;;;;;;5060846;28;20531;-74
2021/11/24 02:57:20;;;;;;;18.70;9.52;;;8.60;94.40;;;;;;5044459;28;20040;-74
2021/11/24 02:59:46;;;;;;;21.13;10.35;;;8.60;94.50;;;;;;5052159;28;20039;-74
2021/11/24 03:02:12;;;;;;;21.08;10.93;;;8.60;94.60;;;;;;5055416;28;20083;-74
2021/11/24 03:04:38;;;;;;;20.45;10.38;;;8.70;94.60;;;;;;5051149;28;20423;-74
2021/11/24 03:07:04;;;;;;;19.67;9.65;;;8.70;94.60;;;;;;5044633;28;20059;-74
2021/11/24 03:09:30;;;;;;;19.50;10.20;;;8.80;94.60;;;;;;5039888;28;20036;-73
2021/11/24 03:11:57;;;;;;;18.65;9.48;;;8.80;94.60;;;;;;5037302;28;20041;-74
2021/11/24 03:14:23;;;;;;;18.15;9.25;;;8.90;94.50;;;;;;5042176;28;20706;-74
2021/11/24 03:16:48;;;;;;;20.02;9.27;;;8.90;94.40;;;;;;5047450;28;20044;-74
2021/11/24 03:19:14;;;;;;;18.83;10.48;;;9.00;94.40;;;;;;5053388;28;20043;-74
2021/11/24 03:21:41;;;;;;;19.83;10.70;;;9.00;94.30;;;;;;5039655;28;20797;-74
2021/11/24 03:24:07;;;;;;;21.77;11.52;;;9.00;94.20;;;;;;5048778;28;20055;-74
2021/11/24 03:26:33;;;;;;;19.65;10.18;;;9.00;94.10;;;;;;5042021;28;20048;-74
2021/11/24 03:28:59;;;;;;;22.27;10.73;;;9.00;94.10;;;;;;5036019;28;20037;-75
2021/11/24 03:31:25;;;;;;;22.33;10.15;;;9.00;94.10;;;;;;5038311;28;20443;-74
2021/11/24 03:33:51;;;;;;;21.08;11.00;;;9.10;94.20;;;;;;5043451;28;20068;-74
2021/11/24 03:36:16;;;;;;;18.10;9.93;;;9.00;94.20;;;;;;5042074;28;20112;-74
2021/11/24 03:38:42;;;;;;;20.75;10.32;;;9.00;94.20;;;;;;5037497;28;20025;-74
2021/11/24 03:41:08;;;;;;;19.63;10.55;;;9.00;94.10;;;;;;5041995;28;20032;-75
2021/11/24 03:43:34;;;;;;;18.63;9.82;;;9.00;94.20;;;;;;5045358;28;20044;-74
2021/11/24 03:46:00;;;;;;;16.52;9.57;;;9.00;94.30;;;;;;5042993;28;20029;-74
2021/11/24 03:48:26;;;;;;;18.60;10.20;;;9.00;94.30;;;;;;5036943;28;20769;-74
2021/11/24 03:50:52;;;;;;;18.85;10.68;;;9.00;94.10;;;;;;5052278;28;20047;-75
2021/11/24 03:53:18;;;;;;;20.02;10.25;;;8.90;94.20;;;;;;5045521;28;20427;-74
2021/11/24 03:55:44;;;;;;;16.17;8.95;;;8.80;94.20;;;;;;5040677;28;20032;-74
2021/11/24 03:58:10;;;;;;;20.38;10.02;;;8.90;94.30;;;;;;5042223;28;20036;-74
2021/11/24 04:00:36;;;;;;;18.33;9.48;;;8.80;94.30;;;;;;5045749;28;20747;-74
2021/11/24 04:03:02;;;;;;;18.33;9.50;;;8.80;94.20;;;;;;5053061;28;20039;-75
2021/11/24 04:05:29;;;;;;;14.55;9.15;;;8.80;94.20;;;;;;5041640;28;20091;-74
2021/11/24 04:07:55;;;;;;;17.83;9.30;;;8.80;94.20;;;;;;5042245;28;20075;-74
2021/11/24 04:10:21;;;;;;;16.70;9.63;;;8.90;94.10;;;;;;5054672;28;20789;-74
2021/11/24 04:12:47;;;;;;;19.15;9.77;;;8.90;94.10;;;;;;5057355;28;20028;-74
2021/11/24 04:15:18;;;;;;;19.08;10.00;;;8.90;94.10;;;;;;5046487;28;20686;-74
2021/11/24 04:17:46;;;;;;;21.88;9.93;;;8.90;94.10;;;;;;5042661;28;20040;-74
2021/11/24 04:20:15;;;;;;;19.23;9.43;;;8.90;94.10;;;;;;5029659;28;20108;-74
2021/11/24 04:22:42;;;;;;;21.40;10.18;;;8.90;94.20;;;;;;5056344;28;20029;-74
2021/11/24 04:25:09;;;;;;;19.80;10.65;;;8.90;94.20;;;;;;5058444;28;20029;-74
2021/11/24 04:27:35;;;;;;;18.63;9.88;;;9.00;94.20;;;;;;5052488;28;20478;-74
2021/11/24 04:30:02;;;;;;;17.98;9.00;;;9.00;94.10;;;;;;5053058;28;20060;-74
2021/11/24 04:32:28;;;;;;;15.70;9.23;;;9.00;94.10;;;;;;5052555;28;20037;-74
2021/11/24 04:34:54;;;;;;;18.00;9.68;;;9.00;94.20;;;;;;5054786;28;20028;-73
2021/11/24 04:37:20;;;;;;;20.65;10.85;;;9.00;94.10;;;;;;5052748;28;20046;-74
2021/11/24 04:39:46;;;;;;;21.38;11.90;;;9.00;94.10;;;;;;5054973;28;20033;-74
2021/11/24 04:42:12;;;;;;;20.08;10.00;;;9.00;94.20;;;;;;5059302;28;20033;-74
2021/11/24 04:44:37;;;;;;;24.25;12.18;;;9.00;94.10;;;;;;5057515;28;20028;-74
2021/11/24 04:47:04;;;;;;;20.00;10.98;;;9.00;94.10;;;;;;5053095;28;20063;-74
2021/11/24 04:49:29;;;;;;;18.90;10.75;;;9.10;94.00;;;;;;5053457;28;20922;-74
2021/11/24 04:51:55;;;;;;;22.00;10.02;;;9.10;94.00;;;;;;5059575;28;20036;-74
2021/11/24 04:54:21;;;;;;;19.70;10.32;;;9.10;94.00;;;;;;5056171;28;20072;-74
2021/11/24 04:56:47;;;;;;;20.60;10.57;;;9.10;94.00;;;;;;5050774;28;20049;-74
2021/11/24 04:59:13;;;;;;;21.35;10.57;;;9.00;94.00;;;;;;5052937;28;20045;-74
2021/11/24 05:01:39;;;;;;;21.50;11.38;;;9.00;94.00;;;;;;5051523;28;20029;-74
2021/11/24 05:04:05;;;;;;;17.45;9.85;;;9.00;94.00;;;;;;5053229;28;20480;-74
2021/11/24 05:06:32;;;;;;;16.92;9.77;;;9.00;94.00;;;;;;5049130;28;20029;-74
2021/11/24 05:08:58;;;;;;;20.13;10.23;;;9.00;94.00;;;;;;5042636;28;20028;-74
2021/11/24 05:11:24;;;;;;;18.33;8.98;;;9.00;94.00;;;;;;5043108;28;20059;-74
2021/11/24 05:13:56;;;;;;;16.08;9.00;;;9.10;94.00;;;;;;5047960;28;20093;-74
2021/11/24 05:16:23;;;;;;;14.93;8.32;;;9.10;94.00;;;;;;5046026;28;20044;-74
2021/11/24 05:18:49;;;;;;;19.38;9.75;;;9.10;94.00;;;;;;5041531;28;20044;-74
2021/11/24 05:21:32;;;;;;;18.08;9.57;;;9.10;93.90;;;;;;5042241;28;20790;-74
2021/11/24 05:23:59;;;;;;;16.45;9.00;;;9.00;93.90;;;;;;5049650;28;20020;-74
2021/11/24 05:26:29;;;;;;;16.50;8.85;;;9.10;93.90;;;;;;5055897;28;20035;-74
2021/11/24 05:28:56;;;;;;;18.00;8.80;;;9.10;93.90;;;;;;5048177;28;20031;-75
2021/11/24 05:31:22;;;;;;;19.23;9.48;;;9.10;93.80;;;;;;5045743;28;20040;-74
2021/11/24 05:33:49;;;;;;;17.70;9.50;;;9.10;93.80;;;;;;5047797;28;20029;-74
2021/11/24 05:36:16;;;;;;;16.75;9.23;;;9.10;93.80;;;;;;5055823;28;20111;-74
2021/11/24 05:38:42;;;;;;;18.60;9.55;;;9.10;93.80;;;;;;5047189;28;20116;-74
2021/11/24 05:41:08;;;;;;;24.25;11.68;;;9.10;93.80;;;;;;5049063;28;20116;-74
2021/11/24 05:43:34;;;;;;;25.35;11.25;;;9.10;93.80;;;;;;5052519;28;20043;-74
2021/11/24 05:46:13;;;;;;;22.42;10.32;;;9.10;93.80;;;;;;5046261;28;20071;-74
2021/11/24 05:48:39;;;;;;;16.92;9.57;;;9.10;93.80;;;;;;5053725;28;20025;-74
2021/11/24 05:51:05;;;;;;;18.95;10.15;;;9.00;93.90;;;;;;5047359;28;20032;-74
2021/11/24 05:53:31;;;;;;;18.00;10.23;;;9.00;93.80;;;;;;5047780;28;20199;-74
2021/11/24 05:56:01;;;;;;;21.70;10.00;;;9.00;93.70;;;;;;5044168;28;20025;-74
2021/11/24 05:58:27;;;;;;;20.83;10.55;;;9.00;93.70;;;;;;5046233;28;20423;-74
2021/11/24 06:00:54;;;;;;;17.50;9.48;;;9.00;93.80;;;;;;5048695;28;20036;-74
2021/11/24 06:03:20;;;;;;;17.88;10.25;;;9.00;93.80;;;;;;5046860;28;20051;-74
2021/11/24 06:05:47;;;;;;;19.65;9.95;;;9.00;93.90;;;;;;5047249;28;20046;-74
2021/11/24 06:08:13;;;;;;;19.75;9.55;;;8.90;93.90;;;;;;5046282;28;20265;-74
2021/11/24 06:10:39;;;;;;;21.08;10.98;;;9.00;93.90;;;;;;5049139;28;20527;-74
2021/11/24 06:13:05;;;;;;;23.60;12.07;;;9.00;93.90;;;;;;5050690;28;20033;-74
2021/11/24 06:15:31;;;;;;;19.98;10.65;;;9.00;93.90;;;;;;5049950;28;20131;-74
2021/11/24 06:17:57;;;;;;;22.08;11.48;;;8.90;94.00;;;;;;5046650;28;20039;-74
2021/11/24 06:20:23;;;;;;;21.08;10.90;;;9.00;93.90;;;;;;5045878;28;20032;-74
2021/11/24 06:22:50;;;;;;;21.48;10.88;;;9.00;94.00;;;;;;5048975;28;20126;-74
2021/11/24 06:25:16;;;;;;;21.45;10.95;;;9.00;93.80;;;;;;5050595;28;20040;-74
2021/11/24 06:27:43;;;;;;;20.45;10.77;;;9.00;93.90;;;;;;5047821;28;20056;-74
2021/11/24 06:30:13;;;;;;;23.33;11.43;;;9.00;93.80;;;;;;5046679;28;20032;-74
2021/11/24 06:32:39;;;;;;;22.35;11.63;;;8.90;93.80;;;;;;5055510;28;20029;-74
2021/11/24 06:35:05;;;;;;;24.05;11.48;;;9.00;93.80;;;;;;5047077;28;20836;-74
2021/11/24 06:37:31;;;;;;;23.38;11.85;;;8.90;93.80;;;;;;5043241;28;20425;-74
2021/11/24 06:39:57;;;;;;;26.02;13.40;;;9.00;93.80;;;;;;5046367;28;20135;-74
2021/11/24 06:42:23;;;;;;;26.13;12.13;;;9.00;93.80;;;;;;5041911;28;20136;-74
2021/11/24 06:44:49;;;;;;;23.23;11.43;;;8.90;93.80;;;;;;5050463;28;20025;-74
2021/11/24 06:47:16;;;;;;;22.95;10.52;;;8.90;93.90;;;;;;5050808;28;20051;-74
2021/11/24 06:49:43;;;;;;;20.55;10.85;;;8.90;94.00;;;;;;5043196;28;20660;-74
2021/11/24 06:52:09;;;;;;;24.67;12.05;;;8.90;93.90;;;;;;5044936;28;20392;-74
2021/11/24 06:54:35;;;;;;;25.02;12.50;;;8.90;93.90;;;;;;5045979;28;20052;-74
2021/11/24 06:57:01;;;;;;;25.13;11.55;;;8.90;93.90;;;;;;5045927;28;20114;-74
2021/11/24 06:59:26;;;;;;;29.20;14.00;;;9.00;93.90;;;;;;5043456;28;20044;-74
2021/11/24 07:01:52;;;;;;;28.42;14.75;;;9.00;93.80;;;;;;5043238;28;20028;-74
2021/11/24 07:04:18;;;;;;;28.45;13.00;;;9.00;93.90;;;;;;5045841;28;20127;-74
2021/11/24 07:06:44;;;;;;;29.77;14.00;;;9.00;93.90;;;;;;5042584;28;20400;-74
2021/11/24 07:09:10;;;;;;;33.28;15.32;;;8.90;93.90;;;;;;5036602;28;20033;-74
2021/11/24 07:11:37;;;;;;;46.90;21.95;;;8.90;93.90;;;;;;5045080;28;20036;-74
2021/11/24 07:14:03;;;;;;;27.85;13.25;;;8.90;93.80;;;;;;5043830;28;20025;-74
2021/11/24 07:16:29;;;;;;;41.00;16.77;;;9.00;93.90;;;;;;5047709;28;20036;-74
2021/11/24 07:18:55;;;;;;;44.80;23.40;;;9.00;93.90;;;;;;5035936;28;20064;-74
2021/11/24 07:21:21;;;;;;;29.05;13.60;;;8.90;93.80;;;;;;5045682;28;20021;-74
2021/11/24 07:23:47;;;;;;;26.20;12.13;;;9.00;93.90;;;;;;5046047;28;20036;-74
2021/11/24 07:26:13;;;;;;;33.45;17.52;;;9.00;93.90;;;;;;5048833;28;20037;-74
2021/11/24 07:28:38;;;;;;;25.55;13.20;;;9.10;93.80;;;;;;5036302;28;20044;-74
2021/11/24 07:31:04;;;;;;;34.35;17.05;;;9.10;93.80;;;;;;5045311;28;20043;-74
2021/11/24 07:33:30;;;;;;;29.10;14.60;;;9.20;93.70;;;;;;5043356;28;20519;-74
2021/11/24 07:35:56;;;;;;;28.80;13.50;;;9.20;93.70;;;;;;5042754;28;20152;-74
2021/11/24 07:38:22;;;;;;;27.50;14.73;;;9.20;93.60;;;;;;5051282;28;20728;-74
2021/11/24 07:40:48;;;;;;;27.17;13.07;;;9.20;93.50;;;;;;5046127;28;20989;-74
2021/11/24 07:43:14;;;;;;;27.35;13.75;;;9.30;93.50;;;;;;5042692;28;20028;-75
2021/11/24 07:45:40;;;;;;;26.77;12.30;;;9.30;93.40;;;;;;5048019;28;20044;-74
2021/11/24 07:48:06;;;;;;;25.67;13.25;;;9.30;93.40;;;;;;5043988;28;20552;-73
2021/11/24 07:50:32;;;;;;;27.70;13.23;;;9.40;93.20;;;;;;5043991;28;20442;-73
2021/11/24 07:52:57;;;;;;;25.20;13.82;;;9.40;93.20;;;;;;5049870;28;20037;-73
2021/11/24 07:55:23;;;;;;;23.00;11.45;;;9.50;93.20;;;;;;5044569;28;20043;-73
2021/11/24 07:57:49;;;;;;;20.02;11.13;;;9.50;93.10;;;;;;5049138;28;20039;-73
2021/11/24 08:00:17;;;;;;;29.30;15.98;;;9.50;92.90;;;;;;5049210;28;20475;-73
2021/11/24 08:02:43;;;;;;;28.17;14.60;;;9.50;92.90;;;;;;5052360;28;20048;-73
2021/11/24 08:05:09;;;;;;;27.02;13.75;;;9.60;92.90;;;;;;5051511;28;20453;-73
2021/11/24 08:07:36;;;;;;;30.85;15.82;;;9.60;92.80;;;;;;5055235;28;20041;-74
2021/11/24 08:10:07;;;;;;;33.55;15.70;;;9.70;92.60;;;;;;5047697;28;20392;-73
2021/11/24 08:12:34;;;;;;;29.35;15.82;;;9.70;92.60;;;;;;5060424;28;20033;-73
2021/11/24 08:15:00;;;;;;;29.20;14.48;;;9.70;92.60;;;;;;5060078;28;20115;-75
2021/11/24 08:17:26;;;;;;;24.05;12.13;;;9.80;92.50;;;;;;5057732;28;20040;-73
2021/11/24 08:19:52;;;;;;;24.80;12.63;;;9.80;92.50;;;;;;5055498;28;20032;-73
2021/11/24 08:22:18;;;;;;;22.75;11.07;;;9.80;92.40;;;;;;5045610;28;20782;-74
2021/11/24 08:24:44;;;;;;;25.10;11.80;;;9.80;92.30;;;;;;5051026;28;20028;-73
2021/11/24 08:27:10;;;;;;;21.83;10.95;;;9.80;92.30;;;;;;5049100;28;20051;-74
2021/11/24 08:29:36;;;;;;;29.40;12.63;;;9.80;92.40;;;;;;5049259;28;20772;-73
2021/11/24 08:32:01;;;;;;;22.65;11.13;;;9.60;92.40;;;;;;5048911;28;20583;-73
2021/11/24 08:34:27;;;;;;;25.75;11.82;;;9.60;92.60;;;;;;5047269;28;20101;-73
2021/11/24 08:36:53;;;;;;;21.88;10.95;;;9.70;92.60;;;;;;5051779;28;20813;-72
2021/11/24 08:39:19;;;;;;;24.15;11.85;;;9.70;92.50;;;;;;5052378;28;20078;-72
2021/11/24 08:41:46;;;;;;;21.77;10.05;;;9.80;92.50;;;;;;5045562;28;20029;-73
2021/11/24 08:44:13;;;;;;;21.17;10.90;;;9.90;92.40;;;;;;5048775;28;20228;-73
2021/11/24 08:46:39;;;;;;;18.13;9.55;;;10.10;92.00;;;;;;5050622;28;20456;-72
2021/11/24 08:49:06;;;;;;;19.38;10.23;;;10.10;91.80;;;;;;5052004;28;20041;-73
2021/11/24 08:51:33;;;;;;;22.00;11.00;;;10.30;91.80;;;;;;5046735;28;20041;-78
2021/11/24 08:53:59;;;;;;;19.92;9.80;;;10.50;91.60;;;;;;5046441;28;20025;-78
2021/11/24 08:56:25;;;;;;;20.42;9.90;;;10.60;90.90;;;;;;5047695;28;20044;-74
2021/11/24 08:58:52;;;;;;;26.88;13.23;;;10.60;90.70;;;;;;5041486;28;20086;-75
2021/11/24 09:01:18;;;;;;;19.42;10.48;;;10.50;90.70;;;;;;5046642;28;20037;-75
2021/11/24 09:03:43;;;;;;;22.15;11.05;;;10.50;90.90;;;;;;5049230;28;20059;-74
2021/11/24 09:06:10;;;;;;;23.48;11.00;;;10.50;91.00;;;;;;5055763;28;20043;-74
2021/11/24 09:08:35;;;;;;;19.90;9.98;;;10.40;90.90;;;;;;5055024;28;20821;-74
2021/11/24 09:11:02;;;;;;;23.45;13.07;;;10.40;90.90;;;;;;5050156;28;20047;-73
2021/11/24 09:13:28;;;;;;;25.77;12.93;;;10.50;91.00;;;;;;5049447;28;20025;-74
2021/11/24 09:15:54;;;;;;;19.13;9.50;;;10.60;90.90;;;;;;5051210;28;20139;-73
2021/11/24 09:18:20;;;;;;;20.23;10.52;;;10.60;90.60;;;;;;5051373;28;20032;-76
2021/11/24 09:20:47;;;;;;;20.45;9.68;;;10.70;90.50;;;;;;5049770;28;20690;-73
2021/11/24 09:23:16;;;;;;;17.13;8.65;;;10.70;90.50;;;;;;5049030;28;20040;-76
2021/11/24 09:25:54;;;;;;;19.55;9.68;;;10.70;90.60;;;;;;5055245;28;20044;-75
2021/11/24 09:28:24;;;;;;;66.10;29.48;;;10.70;90.70;;;;;;5046050;28;20044;-75
2021/11/24 09:30:51;;;;;;;50.63;22.42;;;10.60;90.60;;;;;;5047551;28;20115;-74
2021/11/24 09:33:17;;;;;;;54.30;25.85;;;10.60;90.50;;;;;;5049662;28;20043;-73
2021/11/24 09:35:43;;;;;;;56.78;22.63;;;10.60;90.60;;;;;;5046118;28;20369;-78
2021/11/24 09:38:09;;;;;;;84.95;28.90;;;10.60;90.60;;;;;;5040106;28;20037;-78
2021/11/24 09:40:36;;;;;;;57.13;21.77;;;10.50;90.60;;;;;;5047631;28;20040;-73
2021/11/24 09:43:06;;;;;;;48.45;16.65;;;10.50;90.60;;;;;;5042247;28;20040;-73
2021/11/24 09:45:32;;;;;;;61.15;18.35;;;10.40;90.60;;;;;;5046034;28;20025;-74
2021/11/24 09:48:00;;;;;;;37.70;13.82;;;10.50;90.80;;;;;;5048888;28;20140;-73
2021/11/24 09:50:29;;;;;;;24.70;11.05;;;10.50;90.80;;;;;;5041358;28;20028;-73
2021/11/24 09:52:57;;;;;;;30.52;12.25;;;10.60;90.40;;;;;;5042961;28;20032;-72
2021/11/24 09:55:28;;;;;;;25.15;12.10;;;10.50;90.40;;;;;;5045495;28;20041;-72
2021/11/24 09:57:56;;;;;;;31.08;12.40;;;10.60;90.60;;;;;;5048501;28;20029;-73
2021/11/24 10:00:25;;;;;;;20.95;10.75;;;10.60;90.60;;;;;;5047596;28;20153;-72
2021/11/24 10:02:54;;;;;;;21.20;10.38;;;10.60;90.80;;;;;;5043207;28;20116;-73
2021/11/24 10:05:22;;;;;;;19.50;10.50;;;10.70;90.50;;;;;;5050113;28;20112;-74
2021/11/24 10:07:48;;;;;;;19.67;9.50;;;10.90;90.40;;;;;;5048660;28;20029;-75
2021/11/24 10:10:14;;;;;;;16.63;8.73;;;11.10;90.10;;;;;;5052018;28;20087;-74
2021/11/24 10:12:39;;;;;;;17.25;8.55;;;11.20;89.60;;;;;;5049748;28;20040;-75
2021/11/24 10:15:09;;;;;;;16.08;7.45;;;11.30;88.30;;;;;;5053824;28;20040;-75
2021/11/24 10:17:35;;;;;;;16.83;8.30;;;11.30;87.80;;;;;;5050938;28;20424;-78
2021/11/24 10:20:06;;;;;;;15.93;8.38;;;11.30;87.90;;;;;;5056555;28;20154;-76
2021/11/24 10:22:34;;;;;;;14.98;8.43;;;11.60;87.30;;;;;;5054859;28;20059;-81
2021/11/24 10:25:14;;;;;;;13.35;7.18;;;12.00;85.60;;;;;;5055250;28;20024;-81
2021/11/24 10:27:48;;;;;;;17.38;9.10;;;12.10;84.00;;;;;;5046596;28;20089;-81
2021/11/24 10:30:30;;;;;;;18.27;9.15;;;12.10;83.60;;;;;;5049383;28;20040;-81
2021/11/24 10:33:16;;;;;;;11.27;6.88;;;12.00;84.00;;;;;;5053228;28;20024;-79
2021/11/24 10:35:42;;;;;;;13.70;7.32;;;11.90;84.20;;;;;;5040901;28;20674;-79
2021/11/24 10:38:15;;;;;;;13.45;7.13;;;11.80;84.60;;;;;;5054527;28;20029;-80
2021/11/24 10:40:44;;;;;;;12.30;6.70;;;11.90;84.40;;;;;;5052792;28;20033;-81
2021/11/24 10:43:12;;;;;;;12.63;6.57;;;11.90;84.20;;;;;;5049150;28;20032;-77
2021/11/24 10:45:39;;;;;;;15.73;7.97;;;12.00;84.00;;;;;;5051722;28;20068;-77
2021/11/24 10:48:05;;;;;;;14.98;7.68;;;12.10;83.20;;;;;;5045552;28;20124;-77
2021/11/24 10:50:34;;;;;;;12.43;6.78;;;12.00;82.90;;;;;;5053107;28;20362;-79
2021/11/24 10:53:00;;;;;;;12.38;6.63;;;12.00;82.90;;;;;;5060250;28;20054;-79
2021/11/24 10:55:31;;;;;;;22.08;8.90;;;12.00;83.60;;;;;;5053690;28;20555;-79
2021/11/24 10:58:16;;;;;;;13.48;7.45;;;12.00;82.30;;;;;;5048097;28;20614;-76
2021/11/24 11:00:44;;;;;;;17.05;8.63;;;12.20;81.20;;;;;;5046683;28;20040;-76
2021/11/24 11:03:11;;;;;;;15.10;7.72;;;12.40;80.80;;;;;;5051292;28;20043;-75
2021/11/24 11:05:44;;;;;;;11.13;5.32;;;12.90;79.00;;;;;;5051555;28;20024;-75
2021/11/24 11:08:12;;;;;;;10.05;4.85;;;13.10;78.40;;;;;;5055371;28;20159;-76
2021/11/24 11:10:44;;;;;;;8.95;4.68;;;13.30;77.40;;;;;;5048522;28;20040;-76
2021/11/24 11:13:18;;;;;;;10.15;5.47;;;13.20;75.60;;;;;;5046949;28;20029;-76
2021/11/24 11:15:50;;;;;;;12.30;6.63;;;13.20;77.00;;;;;;5050526;28;20037;-76
2021/11/24 11:18:32;;;;;;;11.02;6.38;;;12.90;76.70;;;;;;5047890;28;20439;-76
2021/11/24 11:21:10;;;;;;;12.18;6.60;;;12.70;78.80;;;;;;5046483;28;20032;-77
2021/11/24 11:23:45;;;;;;;18.15;7.20;;;12.50;79.40;;;;;;5052222;28;20021;-76
2021/11/24 11:26:15;;;;;;;12.27;7.45;;;12.50;79.90;;;;;;5041832;28;20033;-76
2021/11/24 11:28:47;;;;;;;15.07;7.97;;;12.60;80.30;;;;;;5048605;28;20137;-76
2021/11/24 11:31:16;;;;;;;15.57;8.57;;;12.50;79.80;;;;;;5048013;28;20036;-76
2021/11/24 11:34:03;;;;;;;14.82;7.72;;;12.40;79.80;;;;;;5042049;28;20044;-76
2021/11/24 11:36:28;;;;;;;;;;;12.30;80.60;;;;;;5042932;28;20037;-76
2021/11/24 11:38:57;;;;;;;13.57;7.73;;;12.20;80.80;;;;;;5048653;28;20782;-76
2021/11/24 11:41:28;;;;;;;16.45;7.50;;;12.10;81.60;;;;;;5042978;28;20029;-76
2021/11/24 11:43:55;;;;;;;14.13;7.45;;;11.80;81.60;;;;;;5046439;28;20041;-74
2021/11/24 11:46:24;;;;;;;13.43;7.40;;;11.60;82.00;;;;;;5031608;28;20485;-74
2021/11/24 11:48:53;;;;;;;12.48;7.10;;;11.50;83.00;;;;;;5044043;28;20032;-75
2021/11/24 11:51:30;;;;;;;12.55;8.00;;;11.30;83.80;;;;;;5049994;28;20031;-74
2021/11/24 11:53:56;;;;;;;19.42;12.20;;;11.20;84.30;;;;;;5045328;28;20072;-76
2021/11/24 11:56:25;;;;;;;36.53;18.75;;;11.10;84.70;;;;;;5054411;28;20843;-76
2021/11/24 11:59:14;;;;;;;13.77;7.50;;;11.00;85.30;;;;;;5049839;28;20115;-74
2021/11/24 12:01:40;;;;;;;37.47;28.45;;;11.00;85.40;;;;;;5048165;28;20032;-75
2021/11/24 12:04:16;;;;;;;29.58;18.33;;;11.00;86.20;;;;;;5043087;28;20031;-77
2021/11/24 12:06:51;;;;;;;20.52;12.48;;;11.10;86.20;;;;;;5044919;28;20029;-76
2021/11/24 12:09:19;;;;;;;24.85;12.88;;;11.20;85.80;;;;;;5041476;28;20029;-76
2021/11/24 12:14:45;;;;;;;14.27;9.50;;;11.50;85.10;;;;;;5046945;28;20106;-76
2021/11/24 12:17:36;;;;;;;14.20;7.50;;;11.60;84.70;;;;;;5052698;28;20067;-76
2021/11/24 12:20:14;;;;;;;15.23;8.23;;;11.70;84.10;;;;;;5046141;28;20045;-76
2021/11/24 12:27:58;;;;;;;10.35;5.88;;;11.40;82.90;;;;;;5049134;28;20474;-74
2021/11/24 12:30:36;;;;;;;13.38;6.20;;;11.50;83.70;;;;;;5050325;28;20409;-75
2021/11/24 12:33:04;;;;;;;10.82;6.57;;;11.40;83.60;;;;;;5047291;28;20036;-75
2021/11/24 12:35:32;;;;;;;10.57;6.35;;;11.30;84.20;;;;;;5042968;28;20064;-76
2021/11/24 12:37:59;;;;;;;10.73;5.93;;;11.30;84.80;;;;;;5042500;28;20033;-75
2021/11/24 12:40:30;;;;;;;12.05;6.70;;;11.20;85.10;;;;;;5052370;28;20206;-75
2021/11/24 12:42:58;;;;;;;11.95;7.32;;;11.20;85.40;;;;;;5048032;28;20411;-74
2021/11/24 12:45:24;;;;;;;11.25;6.47;;;11.20;85.90;;;;;;5049872;28;20396;-75
2021/11/24 12:47:56;;;;;;;14.90;8.52;;;11.10;85.80;;;;;;5048377;28;20111;-76